Time;durP1;ratioP1;P1;durP2;ratioP2;P2;SDS_P1;SDS_P2;PMS_P1;PMS_P2;Temp;Humidity;BMP_temperature;BMP_pressure;BME280_temperature;BME280_humidity;BME280_pressure;Samples;Min_cycle;Max_cycle;Signal;HPM_P1;HPM_P2
2022/10/12 00:00:50;;;;;;;5.28;2.83;;;6.20;99.90;;;;;;5037503;28;20604;-66
2022/10/12 00:03:17;;;;;;;6.43;3.22;;;6.10;99.90;;;;;;5040483;28;20040;-66
2022/10/12 00:05:43;;;;;;;6.03;2.75;;;6.20;99.90;;;;;;5045971;28;20465;-65
2022/10/12 00:08:09;;;;;;;6.03;2.60;;;6.20;99.90;;;;;;5037155;28;20037;-66
2022/10/12 00:10:42;;;;;;;5.43;2.47;;;6.20;99.90;;;;;;5041323;28;20382;-66
2022/10/12 00:13:09;;;;;;;4.50;2.38;;;6.20;99.90;;;;;;5042270;28;20130;-65
2022/10/12 00:15:39;;;;;;;5.20;2.70;;;6.20;99.90;;;;;;5042729;28;20405;-66
2022/10/12 00:18:05;;;;;;;6.10;2.95;;;6.20;99.90;;;;;;5038629;28;20077;-66
2022/10/12 00:20:31;;;;;;;4.63;2.90;;;6.20;99.90;;;;;;5044382;28;20121;-65
2022/10/12 00:22:57;;;;;;;6.53;3.15;;;6.20;99.90;;;;;;5043805;28;20121;-65
2022/10/12 00:25:22;;;;;;;7.28;3.55;;;6.20;99.90;;;;;;5042719;28;20115;-66
2022/10/12 00:27:48;;;;;;;6.25;3.22;;;6.10;99.90;;;;;;5037961;28;20118;-66
2022/10/12 00:30:14;;;;;;;5.22;3.15;;;6.10;99.90;;;;;;5038619;28;20033;-66
2022/10/12 00:32:39;;;;;;;6.72;3.03;;;6.10;99.90;;;;;;5037758;28;21908;-66
2022/10/12 00:35:05;;;;;;;5.20;2.53;;;6.10;99.90;;;;;;5041784;28;20087;-66
2022/10/12 00:37:31;;;;;;;6.40;3.40;;;6.10;99.90;;;;;;5038681;28;20264;-66
2022/10/12 00:39:56;;;;;;;5.88;2.50;;;6.10;99.90;;;;;;5038305;28;20069;-66
2022/10/12 00:42:22;;;;;;;4.82;2.28;;;6.00;99.90;;;;;;5040246;28;20385;-66
2022/10/12 00:44:50;;;;;;;4.38;2.40;;;6.10;99.90;;;;;;5042030;28;20069;-66
2022/10/12 00:47:35;;;;;;;6.75;3.35;;;6.00;99.90;;;;;;5038634;28;20420;-66
2022/10/12 00:50:23;;;;;;;4.20;2.70;;;6.00;99.90;;;;;;5034845;28;20051;-66
2022/10/12 00:53:08;;;;;;;3.83;2.22;;;6.00;99.90;;;;;;5040429;28;20388;-66
2022/10/12 00:55:39;;;;;;;5.35;2.35;;;6.00;99.90;;;;;;5038551;28;20076;-66
2022/10/12 00:58:07;;;;;;;5.20;2.60;;;6.10;99.90;;;;;;5039197;28;20044;-66
2022/10/12 01:00:34;;;;;;;6.63;2.45;;;6.10;99.90;;;;;;5038341;28;20050;-66
2022/10/12 01:03:00;;;;;;;6.28;2.55;;;6.10;99.90;;;;;;5038479;28;20124;-65
2022/10/12 01:05:27;;;;;;;7.65;2.65;;;6.10;99.90;;;;;;5041799;28;20041;-66
2022/10/12 01:07:52;;;;;;;9.43;2.47;;;6.10;99.90;;;;;;5042493;28;20116;-66
2022/10/12 01:10:18;;;;;;;9.07;3.42;;;6.10;99.90;;;;;;5037683;28;20075;-66
2022/10/12 01:12:48;;;;;;;4.97;2.72;;;6.10;99.90;;;;;;5038498;28;20091;-66
2022/10/12 01:15:14;;;;;;;5.05;2.17;;;6.00;99.90;;;;;;5039874;28;20121;-66
2022/10/12 01:18:01;;;;;;;9.00;2.60;;;6.00;99.90;;;;;;5043174;28;20079;-66
2022/10/12 01:20:55;;;;;;;7.32;3.28;;;6.00;99.90;;;;;;5040811;28;20111;-66
2022/10/12 01:23:42;;;;;;;5.03;2.72;;;6.10;99.90;;;;;;5048593;28;20619;-66
2022/10/12 01:26:32;;;;;;;5.90;2.72;;;6.00;99.90;;;;;;5038498;28;20037;-66
2022/10/12 01:29:11;;;;;;;5.40;2.30;;;6.00;99.90;;;;;;5048681;28;20041;-66
2022/10/12 01:31:48;;;;;;;6.93;2.90;;;6.00;99.90;;;;;;5045177;28;20091;-66
2022/10/12 01:34:30;;;;;;;5.57;2.63;;;6.00;99.90;;;;;;5043305;28;20041;-65
2022/10/12 01:37:34;;;;;;;10.85;3.10;;;6.00;99.90;;;;;;5043558;28;20112;-66
2022/10/12 01:40:06;;;;;;;7.93;2.60;;;6.10;99.90;;;;;;5023564;28;20783;-65
2022/10/12 01:42:38;;;;;;;4.97;2.40;;;6.10;99.90;;;;;;5044642;28;20049;-65
2022/10/12 01:45:14;;;;;;;5.72;2.95;;;6.10;99.90;;;;;;5040651;28;20128;-65
2022/10/12 01:47:43;;;;;;;7.28;3.17;;;6.20;99.90;;;;;;5040418;28;20527;-65
2022/10/12 01:50:12;;;;;;;10.90;3.67;;;6.20;99.90;;;;;;5042744;28;20045;-66
2022/10/12 01:52:57;;;;;;;9.85;3.90;;;6.30;99.90;;;;;;5044045;28;20513;-66
2022/10/12 01:55:46;;;;;;;8.45;4.00;;;6.20;99.90;;;;;;5039540;28;20445;-66
2022/10/12 01:58:32;;;;;;;9.25;3.90;;;6.30;99.90;;;;;;5043264;28;20494;-65
2022/10/12 02:01:06;;;;;;;12.05;4.22;;;6.30;99.90;;;;;;5044353;28;20033;-66
2022/10/12 02:03:51;;;;;;;8.10;3.90;;;6.30;99.90;;;;;;5042484;28;20041;-65
2022/10/12 02:06:23;;;;;;;12.27;5.00;;;6.30;99.90;;;;;;5040010;28;20037;-66
2022/10/12 02:09:10;;;;;;;11.63;5.50;;;6.30;99.90;;;;;;5046348;28;20047;-65
2022/10/12 02:11:39;;;;;;;9.13;4.57;;;6.40;99.90;;;;;;5046045;28;20045;-66
2022/10/12 02:14:21;;;;;;;12.52;4.95;;;6.40;99.90;;;;;;5046175;28;20033;-65
2022/10/12 02:16:57;;;;;;;8.70;3.92;;;6.40;99.90;;;;;;5044919;28;20068;-66
2022/10/12 02:19:27;;;;;;;10.10;4.75;;;6.40;99.90;;;;;;5043123;28;20048;-66
2022/10/12 02:21:56;;;;;;;11.18;4.07;;;6.40;99.90;;;;;;5043586;28;20171;-66
2022/10/12 02:24:23;;;;;;;12.13;4.03;;;6.30;99.90;;;;;;5046253;28;20045;-65
2022/10/12 02:26:52;;;;;;;11.45;4.10;;;6.30;99.90;;;;;;5043627;28;20480;-66
2022/10/12 02:29:26;;;;;;;7.65;4.53;;;6.30;99.90;;;;;;5046219;28;20501;-66
2022/10/12 02:31:55;;;;;;;8.98;4.60;;;6.20;99.90;;;;;;5041542;28;20037;-66
2022/10/12 02:34:41;;;;;;;16.63;4.15;;;6.20;99.90;;;;;;5038053;28;20482;-65
2022/10/12 02:37:28;;;;;;;7.45;4.60;;;6.20;99.90;;;;;;5044002;28;20033;-65
2022/10/12 02:39:59;;;;;;;14.70;4.40;;;6.20;99.90;;;;;;5043660;28;20041;-66
2022/10/12 02:42:38;;;;;;;11.23;4.20;;;6.20;99.90;;;;;;5040700;28;20077;-66
2022/10/12 02:45:07;;;;;;;6.85;3.80;;;6.10;99.90;;;;;;5042901;28;20493;-65
2022/10/12 02:47:34;;;;;;;8.70;3.85;;;6.10;99.90;;;;;;5043592;28;20033;-66
2022/10/12 02:50:01;;;;;;;8.07;4.03;;;6.10;99.90;;;;;;5044285;28;20516;-66
2022/10/12 02:52:29;;;;;;;6.88;3.65;;;6.00;99.90;;;;;;5041429;28;20033;-66
2022/10/12 02:54:54;;;;;;;11.85;4.65;;;6.00;99.90;;;;;;5040895;28;20176;-66
2022/10/12 02:57:20;;;;;;;11.77;4.82;;;6.00;99.90;;;;;;5041964;28;20132;-65
2022/10/12 02:59:46;;;;;;;8.18;4.22;;;6.00;99.90;;;;;;5045328;28;20381;-66
2022/10/12 03:02:11;;;;;;;8.23;4.72;;;6.00;99.90;;;;;;5042577;28;20064;-65
2022/10/12 03:04:37;;;;;;;10.18;4.57;;;6.00;99.90;;;;;;5040474;28;20060;-65
2022/10/12 03:07:03;;;;;;;12.40;3.97;;;5.90;99.90;;;;;;5043718;28;20053;-65
2022/10/12 03:09:29;;;;;;;9.60;4.90;;;5.90;99.90;;;;;;5039139;28;20045;-66
2022/10/12 03:11:54;;;;;;;14.20;6.05;;;5.90;99.90;;;;;;5043489;28;20026;-65
2022/10/12 03:14:21;;;;;;;13.15;4.93;;;5.90;99.90;;;;;;5045057;28;20029;-65
2022/10/12 03:16:47;;;;;;;15.77;6.85;;;5.90;99.90;;;;;;5042864;28;20464;-65
2022/10/12 03:19:13;;;;;;;15.82;6.15;;;6.00;99.90;;;;;;5040275;28;20071;-66
2022/10/12 03:21:39;;;;;;;17.80;6.13;;;6.00;99.90;;;;;;5037615;28;20034;-65
2022/10/12 03:24:05;;;;;;;11.52;5.78;;;6.00;99.90;;;;;;5042962;28;20036;-65
2022/10/12 03:26:32;;;;;;;15.30;6.45;;;6.00;99.90;;;;;;5045019;28;20049;-66
2022/10/12 03:28:57;;;;;;;15.98;6.35;;;6.00;99.90;;;;;;5043027;28;20029;-65
2022/10/12 03:31:23;;;;;;;10.70;6.03;;;5.90;99.90;;;;;;5040365;28;20037;-66
2022/10/12 03:33:49;;;;;;;14.90;6.13;;;5.90;99.90;;;;;;5041365;28;20036;-65
2022/10/12 03:36:14;;;;;;;12.60;5.95;;;5.90;99.90;;;;;;5039518;28;20453;-65
2022/10/12 03:38:40;;;;;;;14.15;5.78;;;5.90;99.90;;;;;;5041767;28;20044;-66
2022/10/12 03:41:05;;;;;;;11.18;6.65;;;5.90;99.90;;;;;;5036947;28;20037;-65
2022/10/12 03:43:31;;;;;;;11.82;6.53;;;5.90;99.90;;;;;;5042002;28;20106;-65
2022/10/12 03:45:57;;;;;;;17.73;6.60;;;5.90;99.90;;;;;;5040777;28;20549;-65
2022/10/12 03:48:23;;;;;;;16.25;6.55;;;5.90;99.90;;;;;;5038996;28;20060;-66
2022/10/12 03:50:49;;;;;;;14.57;6.97;;;5.80;99.90;;;;;;5037994;28;20037;-65
2022/10/12 03:53:16;;;;;;;12.35;7.13;;;5.80;99.90;;;;;;5041831;28;20041;-65
2022/10/12 03:55:42;;;;;;;17.27;7.65;;;5.80;99.90;;;;;;5040821;28;20174;-66
2022/10/12 03:58:07;;;;;;;17.02;8.23;;;5.80;99.90;;;;;;5045753;28;20128;-65
2022/10/12 04:00:33;;;;;;;23.63;9.10;;;5.80;99.90;;;;;;5039740;28;20042;-66
2022/10/12 04:03:00;;;;;;;22.70;9.75;;;5.80;99.90;;;;;;5039737;28;20045;-66
2022/10/12 04:05:27;;;;;;;16.00;9.10;;;5.80;99.90;;;;;;5045927;28;20061;-66
2022/10/12 04:07:52;;;;;;;21.00;9.52;;;5.80;99.90;;;;;;5034616;28;20075;-66
2022/10/12 04:10:18;;;;;;;14.40;9.07;;;5.90;99.90;;;;;;5036239;28;20124;-66
2022/10/12 04:12:44;;;;;;;17.63;8.73;;;5.90;99.90;;;;;;5040467;28;20034;-66
2022/10/12 04:15:10;;;;;;;18.20;9.38;;;5.90;99.90;;;;;;5042159;28;20070;-66
2022/10/12 04:17:36;;;;;;;16.80;9.32;;;5.90;99.90;;;;;;5038644;28;20033;-65
2022/10/12 04:20:02;;;;;;;19.30;9.80;;;5.90;99.90;;;;;;5036728;28;20400;-65
2022/10/12 04:22:28;;;;;;;16.20;8.93;;;5.80;99.90;;;;;;5038852;28;20049;-66
2022/10/12 04:24:54;;;;;;;17.80;8.48;;;5.80;99.90;;;;;;5039732;28;20131;-66
2022/10/12 04:27:19;;;;;;;19.15;9.60;;;5.80;99.90;;;;;;5039547;28;20041;-65
2022/10/12 04:29:45;;;;;;;18.08;9.00;;;5.70;99.90;;;;;;5042310;28;20045;-65
2022/10/12 04:32:11;;;;;;;20.00;9.35;;;5.70;99.90;;;;;;5042042;28;20554;-65
2022/10/12 04:34:36;;;;;;;21.30;9.10;;;5.70;99.90;;;;;;5041904;28;20032;-65
2022/10/12 04:37:02;;;;;;;19.50;8.93;;;5.70;99.90;;;;;;5043121;28;20120;-65
2022/10/12 04:39:28;;;;;;;15.02;9.05;;;5.70;99.90;;;;;;5040302;28;20084;-65
2022/10/12 04:41:54;;;;;;;18.42;8.23;;;5.70;99.90;;;;;;5044250;28;20044;-65
2022/10/12 04:44:20;;;;;;;17.10;8.57;;;5.60;99.90;;;;;;5041911;28;20060;-65
2022/10/12 04:46:46;;;;;;;18.42;9.20;;;5.60;99.90;;;;;;5037111;28;20037;-66
2022/10/12 04:49:12;;;;;;;19.73;8.38;;;5.60;99.90;;;;;;5041413;28;20063;-65
2022/10/12 04:51:38;;;;;;;23.23;9.38;;;5.60;99.90;;;;;;5043432;28;20061;-65
2022/10/12 04:54:03;;;;;;;14.77;8.20;;;5.50;99.90;;;;;;5041516;28;20045;-65
2022/10/12 04:56:29;;;;;;;19.02;8.27;;;5.50;99.90;;;;;;5034667;28;20026;-65
2022/10/12 04:58:54;;;;;;;23.63;8.88;;;5.50;99.90;;;;;;5041065;28;20193;-65
2022/10/12 05:01:20;;;;;;;16.83;8.95;;;5.50;99.90;;;;;;5040416;28;20037;-65
2022/10/12 05:03:46;;;;;;;16.60;7.25;;;5.40;99.90;;;;;;5042543;28;20072;-65
2022/10/12 05:06:11;;;;;;;15.30;8.05;;;5.40;99.90;;;;;;5039093;28;20057;-66
2022/10/12 05:08:37;;;;;;;13.00;7.78;;;5.40;99.90;;;;;;5042507;28;20049;-66
2022/10/12 05:11:03;;;;;;;16.20;7.40;;;5.30;99.90;;;;;;5042262;28;20503;-66
2022/10/12 05:13:29;;;;;;;15.30;7.38;;;5.30;99.90;;;;;;5040523;28;20114;-66
2022/10/12 05:15:55;;;;;;;12.55;6.88;;;5.30;99.90;;;;;;5043183;28;20033;-66
2022/10/12 05:18:20;;;;;;;11.60;7.35;;;5.20;99.90;;;;;;5041823;28;20052;-66
2022/10/12 05:20:46;;;;;;;14.85;7.80;;;5.20;99.90;;;;;;5042193;28;20037;-66
2022/10/12 05:23:12;;;;;;;19.02;7.20;;;5.20;99.90;;;;;;5036848;28;20579;-65
2022/10/12 05:25:37;;;;;;;13.27;7.15;;;5.10;99.90;;;;;;5037368;28;20452;-65
2022/10/12 05:28:03;;;;;;;14.48;6.85;;;5.00;99.90;;;;;;5037771;28;20045;-66
2022/10/12 05:30:29;;;;;;;13.52;7.50;;;5.10;99.90;;;;;;5044379;28;20728;-65
2022/10/12 05:32:55;;;;;;;14.25;6.60;;;5.10;99.90;;;;;;5037748;28;20041;-65
2022/10/12 05:35:21;;;;;;;11.27;6.25;;;5.10;99.90;;;;;;5037673;28;20408;-65
2022/10/12 05:37:46;;;;;;;18.75;7.55;;;5.10;99.90;;;;;;5041471;28;20100;-66
2022/10/12 05:40:12;;;;;;;14.57;8.00;;;5.10;99.90;;;;;;5045161;28;20033;-66
2022/10/12 05:42:38;;;;;;;14.10;7.43;;;5.10;99.90;;;;;;5039725;28;20037;-65
2022/10/12 05:45:04;;;;;;;15.82;7.38;;;5.10;99.90;;;;;;5034295;28;20045;-66
2022/10/12 05:47:30;;;;;;;18.13;7.70;;;5.00;99.90;;;;;;5039517;28;20037;-66
2022/10/12 05:49:55;;;;;;;13.15;7.00;;;5.10;99.90;;;;;;5042663;28;20055;-66
2022/10/12 05:52:22;;;;;;;11.07;7.25;;;5.00;99.90;;;;;;5041336;28;20060;-66
2022/10/12 05:54:48;;;;;;;15.70;7.28;;;5.00;99.90;;;;;;5044103;28;20041;-66
2022/10/12 05:57:14;;;;;;;14.90;7.60;;;5.00;99.90;;;;;;5040482;28;20541;-65
2022/10/12 05:59:41;;;;;;;16.33;7.68;;;5.00;99.90;;;;;;5041602;28;20116;-65
2022/10/12 06:02:06;;;;;;;16.65;7.97;;;4.90;99.90;;;;;;5043988;28;20053;-65
2022/10/12 06:04:32;;;;;;;10.93;7.18;;;4.90;99.90;;;;;;5039503;28;20034;-66
2022/10/12 06:06:58;;;;;;;17.20;8.15;;;4.90;99.90;;;;;;5040572;28;20073;-65
2022/10/12 06:09:23;;;;;;;16.58;8.30;;;4.90;99.90;;;;;;5043670;28;20540;-65
2022/10/12 06:11:49;;;;;;;16.67;8.30;;;4.90;99.90;;;;;;5042251;28;20076;-65
2022/10/12 06:14:15;;;;;;;17.27;9.02;;;4.90;99.90;;;;;;5044500;28;20120;-66
2022/10/12 06:16:41;;;;;;;22.73;11.40;;;4.90;99.90;;;;;;5046082;28;20037;-65
2022/10/12 06:19:11;;;;;;;23.63;10.45;;;4.90;99.90;;;;;;5043163;28;20044;-65
2022/10/12 06:21:37;;;;;;;24.23;12.65;;;4.80;99.90;;;;;;5041611;28;20049;-65
2022/10/12 06:24:03;;;;;;;19.65;10.43;;;4.90;99.90;;;;;;5043280;28;20393;-65
2022/10/12 06:26:29;;;;;;;13.30;8.68;;;4.90;99.90;;;;;;5043783;28;20041;-65
2022/10/12 06:28:54;;;;;;;19.25;9.02;;;4.90;99.90;;;;;;5042720;28;20036;-65
2022/10/12 06:31:21;;;;;;;15.70;8.63;;;4.90;99.90;;;;;;5044230;28;20045;-65
2022/10/12 06:33:49;;;;;;;18.15;9.00;;;5.00;99.90;;;;;;5044306;28;20029;-65
2022/10/12 06:36:14;;;;;;;21.25;9.57;;;5.00;99.90;;;;;;5044011;28;20045;-65
2022/10/12 06:38:40;;;;;;;24.48;10.07;;;5.00;99.90;;;;;;5045176;28;20473;-65
2022/10/12 06:41:05;;;;;;;18.40;9.77;;;5.10;99.90;;;;;;5041230;28;20098;-65
2022/10/12 06:43:31;;;;;;;26.20;9.88;;;5.00;99.90;;;;;;5040273;28;20072;-65
2022/10/12 06:46:00;;;;;;;14.52;9.63;;;5.10;99.90;;;;;;5044852;28;20034;-65
2022/10/12 06:48:26;;;;;;;20.33;10.90;;;5.10;99.90;;;;;;5044240;28;20033;-65
2022/10/12 06:50:52;;;;;;;18.58;10.68;;;5.20;99.90;;;;;;5047779;28;20041;-65
2022/10/12 06:53:18;;;;;;;25.90;11.15;;;5.30;99.90;;;;;;5041194;28;20049;-65
2022/10/12 06:55:44;;;;;;;22.20;12.05;;;5.30;99.90;;;;;;5045318;28;20041;-65
2022/10/12 06:58:10;;;;;;;20.85;10.48;;;5.40;99.90;;;;;;5048316;28;20099;-66
2022/10/12 07:00:35;;;;;;;17.60;9.70;;;5.50;99.90;;;;;;5044754;28;20087;-65
2022/10/12 07:03:01;;;;;;;16.20;9.88;;;5.60;99.90;;;;;;5046495;28;20087;-65
2022/10/12 07:05:27;;;;;;;18.58;10.57;;;5.60;99.90;;;;;;5042127;28;20056;-66
2022/10/12 07:07:53;;;;;;;20.25;10.88;;;5.70;99.90;;;;;;5048141;28;20077;-66
2022/10/12 07:10:18;;;;;;;21.38;11.52;;;5.80;99.90;;;;;;5039861;28;20044;-66
2022/10/12 07:12:44;;;;;;;18.48;10.85;;;6.00;99.90;;;;;;5041125;28;20029;-66
2022/10/12 07:15:10;;;;;;;24.98;11.30;;;6.30;99.90;;;;;;5042388;28;20041;-66
2022/10/12 07:17:36;;;;;;;19.27;10.32;;;6.80;99.90;;;;;;5043488;28;20045;-66
2022/10/12 07:20:02;;;;;;;19.45;12.48;;;7.30;99.90;;;;;;5039055;28;20040;-67
2022/10/12 07:22:27;;;;;;;19.42;11.23;;;8.00;99.90;;;;;;5041507;28;20064;-67
2022/10/12 07:24:53;;;;;;;16.65;11.13;;;8.70;99.90;;;;;;5046604;28;20039;-67
2022/10/12 07:27:19;;;;;;;21.63;11.15;;;9.80;99.90;;;;;;5045141;28;20491;-68
2022/10/12 07:29:44;;;;;;;16.63;9.25;;;10.80;99.90;;;;;;5036730;28;20044;-68
2022/10/12 07:32:10;;;;;;;15.88;8.30;;;11.70;99.90;;;;;;5042426;28;20050;-68
2022/10/12 07:34:36;;;;;;;13.73;7.18;;;12.30;99.90;;;;;;5037326;28;20034;-68
2022/10/12 07:37:01;;;;;;;13.90;7.20;;;13.00;99.90;;;;;;5036228;28;20060;-68
2022/10/12 07:39:27;;;;;;;11.55;5.93;;;13.70;99.90;;;;;;5040639;28;20037;-68
2022/10/12 07:41:53;;;;;;;11.98;6.05;;;14.60;99.90;;;;;;5038847;28;20045;-68
2022/10/12 07:44:19;;;;;;;13.43;6.10;;;15.30;99.90;;;;;;5043412;28;20044;-68
2022/10/12 07:46:45;;;;;;;11.60;5.30;;;16.10;99.90;;;;;;5037515;28;20037;-68
2022/10/12 07:49:12;;;;;;;10.25;4.97;;;16.50;99.90;;;;;;5036161;28;20056;-68
2022/10/12 07:51:38;;;;;;;9.95;5.03;;;17.00;99.90;;;;;;5040425;28;20178;-68
2022/10/12 07:54:04;;;;;;;12.18;4.85;;;16.60;99.90;;;;;;5042440;28;20049;-68
2022/10/12 07:56:30;;;;;;;11.30;5.18;;;15.80;99.90;;;;;;5040664;28;20151;-68
2022/10/12 07:58:56;;;;;;;12.20;4.55;;;15.00;99.90;;;;;;5038744;28;20461;-68
2022/10/12 08:01:25;;;;;;;12.43;4.57;;;14.20;99.90;;;;;;5042545;28;20043;-69
2022/10/12 08:03:51;;;;;;;12.30;4.72;;;13.50;99.90;;;;;;5041074;28;20047;-68
2022/10/12 08:06:21;;;;;;;13.40;4.68;;;12.90;99.90;;;;;;5041424;28;20497;-68
2022/10/12 08:08:47;;;;;;;12.88;5.05;;;12.60;99.90;;;;;;5037770;28;20033;-68
2022/10/12 08:11:13;;;;;;;14.32;4.70;;;12.30;99.90;;;;;;5044762;28;20044;-68
2022/10/12 08:13:39;;;;;;;10.35;4.75;;;12.00;99.90;;;;;;5034532;28;20557;-68
2022/10/12 08:16:08;;;;;;;8.57;3.97;;;11.70;99.90;;;;;;5035744;28;20044;-68
2022/10/12 08:18:34;;;;;;;13.00;5.03;;;11.50;99.90;;;;;;5035740;28;20041;-68
2022/10/12 08:21:03;;;;;;;9.00;4.88;;;11.30;99.90;;;;;;5042937;28;20091;-68
2022/10/12 08:23:29;;;;;;;10.85;5.50;;;11.10;99.90;;;;;;5040162;28;20040;-68
2022/10/12 08:25:56;;;;;;;12.30;4.85;;;11.00;99.90;;;;;;5039864;28;20466;-68
2022/10/12 08:28:23;;;;;;;11.50;5.03;;;10.90;99.90;;;;;;5039455;28;20040;-68
2022/10/12 08:30:49;;;;;;;11.27;5.18;;;10.90;99.90;;;;;;5041755;28;20077;-67
2022/10/12 08:33:15;;;;;;;12.23;4.65;;;10.80;99.90;;;;;;5038761;28;20068;-67
2022/10/12 08:35:41;;;;;;;13.20;5.72;;;10.80;99.90;;;;;;5044008;28;20037;-68
2022/10/12 08:38:08;;;;;;;14.52;5.03;;;10.90;99.90;;;;;;5041286;28;20053;-68
2022/10/12 08:40:42;;;;;;;8.75;4.10;;;11.00;99.90;;;;;;5044702;28;20372;-68
2022/10/12 08:43:16;;;;;;;12.00;5.10;;;11.20;99.90;;;;;;5039215;28;20127;-68
2022/10/12 08:45:41;;;;;;;11.88;4.53;;;11.30;99.90;;;;;;5043789;28;20090;-68
2022/10/12 08:48:16;;;;;;;11.75;4.68;;;11.40;99.90;;;;;;5039917;28;20307;-68
2022/10/12 08:50:54;;;;;;;10.95;4.85;;;11.60;99.90;;;;;;5040797;28;20069;-67
2022/10/12 08:53:26;;;;;;;12.75;5.20;;;11.80;99.90;;;;;;5042815;28;20041;-67
2022/10/12 08:55:52;;;;;;;9.52;4.15;;;12.10;99.90;;;;;;5044530;28;20405;-67
2022/10/12 08:58:22;;;;;;;10.63;4.72;;;12.20;99.90;;;;;;5044827;28;20041;-67
2022/10/12 09:00:56;;;;;;;12.90;4.20;;;12.30;99.90;;;;;;5047473;28;20517;-67
2022/10/12 09:03:45;;;;;;;16.83;4.40;;;12.70;99.90;;;;;;5042766;28;20227;-68
2022/10/12 09:06:21;;;;;;;14.90;4.97;;;14.10;99.90;;;;;;5044627;28;20061;-68
2022/10/12 09:09:03;;;;;;;11.98;4.40;;;15.70;99.90;;;;;;5041077;28;20050;-68
2022/10/12 09:11:56;;;;;;;9.90;3.50;;;17.00;99.90;;;;;;5039805;28;20445;-68
2022/10/12 09:14:27;;;;;;;11.18;3.58;;;18.20;99.90;;;;;;5038618;28;20095;-68
2022/10/12 09:16:55;;;;;;;8.50;3.60;;;19.00;99.90;;;;;;5040772;28;20053;-68
2022/10/12 09:19:34;;;;;;;10.90;3.55;;;19.60;99.40;;;;;;5039860;28;20045;-68
2022/10/12 09:22:02;;;;;;;11.45;3.17;;;20.20;96.20;;;;;;5041924;28;20404;-68
2022/10/12 09:24:33;;;;;;;11.07;3.58;;;20.80;92.30;;;;;;5036858;28;20045;-68
2022/10/12 09:27:04;;;;;;;9.07;3.38;;;21.10;90.20;;;;;;5042737;28;20054;-68
2022/10/12 09:29:31;;;;;;;10.75;3.60;;;21.30;88.00;;;;;;5044118;28;20064;-69
2022/10/12 09:32:21;;;;;;;9.07;3.33;;;21.80;85.80;;;;;;5038047;28;20037;-68
2022/10/12 09:34:48;;;;;;;7.47;3.00;;;22.00;81.70;;;;;;5035036;28;20737;-68
2022/10/12 09:37:27;;;;;;;8.50;3.13;;;22.20;79.30;;;;;;5043207;28;20071;-68
2022/10/12 09:39:54;;;;;;;9.18;3.63;;;21.90;71.90;;;;;;5041168;28;20159;-68
2022/10/12 09:42:19;;;;;;;10.13;3.80;;;21.60;75.20;;;;;;5035973;28;20033;-68
2022/10/12 09:45:33;;;;;;;10.20;3.00;;;21.00;76.70;;;;;;5039320;28;20060;-68
2022/10/12 09:48:11;;;;;;;9.70;3.28;;;21.30;75.70;;;;;;4990021;28;20081;-68
2022/10/12 09:50:49;;;;;;;8.45;2.97;;;21.90;74.80;;;;;;4989294;28;20122;-68
2022/10/12 09:53:26;;;;;;;9.07;3.03;;;22.50;71.10;;;;;;5019763;28;20052;-68
2022/10/12 09:56:22;;;;;;;10.98;3.03;;;22.90;70.10;;;;;;5044127;28;20203;-68
2022/10/12 09:58:57;;;;;;;10.73;3.08;;;22.80;69.30;;;;;;5039278;28;20128;-68
2022/10/12 10:01:24;;;;;;;9.13;2.63;;;22.50;68.40;;;;;;5039715;28;20046;-68
2022/10/12 10:04:06;;;;;;;9.45;2.50;;;22.00;68.80;;;;;;5041891;28;20030;-68
2022/10/12 10:06:32;;;;;;;8.18;2.30;;;21.60;66.60;;;;;;5045765;28;20093;-68
2022/10/12 10:08:58;;;;;;;8.55;2.58;;;21.50;68.40;;;;;;5038105;28;20030;-68
2022/10/12 10:11:29;;;;;;;10.68;2.55;;;22.10;67.10;;;;;;5039659;28;20673;-68
2022/10/12 10:13:56;;;;;;;10.00;3.15;;;22.70;65.60;;;;;;5039206;28;20513;-68
2022/10/12 10:16:24;;;;;;;7.32;2.53;;;23.20;63.70;;;;;;5046851;28;20112;-68
2022/10/12 10:18:53;;;;;;;8.90;2.70;;;23.50;63.40;;;;;;5022677;28;20132;-68
2022/10/12 10:21:30;;;;;;;7.20;2.40;;;23.90;61.70;;;;;;5041271;28;20055;-68
2022/10/12 10:23:59;;;;;;;7.97;2.47;;;24.20;59.70;;;;;;5046726;28;20045;-68
2022/10/12 10:26:28;;;;;;;6.90;2.33;;;24.30;59.50;;;;;;5057693;28;20340;-68
2022/10/12 10:29:24;;;;;;;10.98;3.60;;;24.50;58.50;;;;;;5045632;28;20124;-68
2022/10/12 10:32:28;;;;;;;6.20;3.05;;;24.70;58.00;;;;;;5041148;28;20124;-67
2022/10/12 10:35:13;;;;;;;8.68;2.78;;;24.50;55.30;;;;;;5045014;28;20246;-68
2022/10/12 10:37:57;;;;;;;;;;;24.50;56.40;;;;;;5038370;28;20045;-68
2022/10/12 10:40:50;;;;;;;9.93;2.35;;;24.40;54.70;;;;;;5039432;28;19923;-68
2022/10/12 10:43:35;;;;;;;7.45;2.33;;;24.50;57.90;;;;;;5042523;28;20052;-68
2022/10/12 10:46:29;;;;;;;8.15;2.22;;;24.90;56.80;;;;;;5038774;28;20104;-68
2022/10/12 10:48:57;;;;;;;6.43;2.05;;;25.10;54.60;;;;;;5042461;28;20076;-67
2022/10/12 10:51:43;;;;;;;8.23;2.33;;;25.00;55.40;;;;;;5047013;28;20045;-68
2022/10/12 10:54:23;;;;;;;10.68;2.92;;;24.90;54.40;;;;;;5043183;28;20041;-67
2022/10/12 10:57:02;;;;;;;7.80;2.75;;;25.10;54.30;;;;;;5043288;28;20485;-67
2022/10/12 10:59:46;;;;;;;8.65;3.17;;;25.20;55.50;;;;;;5039290;28;20170;-67
2022/10/12 11:02:21;;;;;;;7.90;2.88;;;25.40;55.70;;;;;;5044282;28;20045;-68
2022/10/12 11:05:10;;;;;;;7.85;2.92;;;25.80;54.90;;;;;;5040187;28;20447;-68
2022/10/12 11:07:47;;;;;;;6.88;2.33;;;26.00;54.40;;;;;;5041180;28;20100;-68
2022/10/12 11:10:20;;;;;;;8.18;2.70;;;25.90;52.80;;;;;;5040708;28;20049;-67
2022/10/12 11:12:51;;;;;;;5.50;2.28;;;25.60;51.20;;;;;;5043002;28;20037;-67
2022/10/12 11:15:37;;;;;;;9.05;2.67;;;25.50;52.30;;;;;;5039940;28;20040;-67
2022/10/12 11:18:14;;;;;;;8.70;2.47;;;25.20;51.60;;;;;;5039169;28;20044;-68
2022/10/12 11:21:08;;;;;;;9.93;2.50;;;24.90;52.60;;;;;;5041404;28;20094;-67
2022/10/12 11:23:39;;;;;;;10.00;2.85;;;24.90;51.50;;;;;;5038097;28;20049;-66
2022/10/12 11:26:28;;;;;;;9.50;2.55;;;24.80;52.50;;;;;;5036435;28;20115;-68
2022/10/12 11:28:58;;;;;;;9.57;3.28;;;24.90;52.60;;;;;;5036509;28;20045;-67
2022/10/12 11:31:30;;;;;;;7.13;2.13;;;25.00;52.50;;;;;;5044797;28;20052;-67
2022/10/12 11:33:59;;;;;;;7.22;2.22;;;24.90;53.70;;;;;;5035970;28;20040;-67
2022/10/12 11:36:28;;;;;;;7.68;2.40;;;25.10;53.20;;;;;;5039885;28;20515;-68
2022/10/12 11:38:59;;;;;;;8.57;2.40;;;25.20;51.80;;;;;;5040360;28;20373;-68
2022/10/12 11:41:44;;;;;;;7.95;2.75;;;25.20;51.10;;;;;;5036531;28;20067;-67
2022/10/12 11:44:18;;;;;;;7.35;2.40;;;25.00;51.90;;;;;;5036595;28;20045;-67
2022/10/12 11:46:54;;;;;;;8.52;2.60;;;25.10;52.40;;;;;;5038632;28;20072;-67
2022/10/12 11:49:51;;;;;;;7.57;2.38;;;25.10;51.60;;;;;;5039977;28;20080;-67
2022/10/12 11:52:18;;;;;;;8.05;2.95;;;24.90;52.00;;;;;;5044428;28;20056;-67
2022/10/12 11:55:25;;;;;;;9.88;2.50;;;25.00;50.60;;;;;;5045012;28;20086;-67
2022/10/12 11:57:53;;;;;;;8.65;2.80;;;24.90;49.80;;;;;;5036741;28;20176;-67
2022/10/12 12:00:29;;;;;;;12.80;2.53;;;24.80;51.20;;;;;;5039336;28;20041;-67
2022/10/12 12:03:11;;;;;;;6.85;2.20;;;24.90;49.50;;;;;;5040624;28;20045;-67
2022/10/12 12:05:37;;;;;;;10.10;2.22;;;24.90;49.10;;;;;;5042103;28;20120;-67
2022/10/12 12:08:03;;;;;;;7.80;2.65;;;24.80;49.40;;;;;;5038861;28;20166;-67
2022/10/12 12:10:34;;;;;;;8.07;2.30;;;24.80;48.60;;;;;;5041952;28;20041;-67
2022/10/12 12:13:16;;;;;;;7.43;2.50;;;24.50;50.30;;;;;;5036762;28;20064;-67
2022/10/12 12:15:51;;;;;;;9.13;2.40;;;24.60;49.20;;;;;;5037558;28;20049;-67
2022/10/12 12:18:19;;;;;;;7.18;2.28;;;24.60;50.70;;;;;;5041939;28;20043;-67
2022/10/12 12:20:48;;;;;;;7.65;2.53;;;24.70;49.60;;;;;;5037352;28;20059;-67
2022/10/12 12:23:24;;;;;;;8.77;2.72;;;24.70;49.20;;;;;;5037828;28;20040;-67
2022/10/12 12:26:08;;;;;;;10.77;3.17;;;24.80;49.50;;;;;;5038169;28;20073;-67
2022/10/12 12:28:35;;;;;;;;;;;24.50;49.40;;;;;;5040054;28;20033;-67
2022/10/12 12:31:27;;;;;;;10.57;3.08;;;23.40;50.00;;;;;;5039674;28;19924;-67
2022/10/12 12:34:15;;;;;;;8.02;3.60;;;21.90;53.20;;;;;;5039601;28;20055;-67
2022/10/12 12:36:45;;;;;;;8.85;2.42;;;20.50;54.50;;;;;;5038719;28;20064;-67
2022/10/12 12:39:20;;;;;;;11.45;3.20;;;19.40;57.40;;;;;;5038304;28;20060;-66
2022/10/12 12:41:54;;;;;;;9.68;2.38;;;18.60;58.60;;;;;;5040288;28;20218;-66
2022/10/12 12:44:41;;;;;;;7.50;2.20;;;18.00;59.40;;;;;;5044332;28;20432;-66
2022/10/12 12:47:10;;;;;;;8.95;2.63;;;17.30;61.20;;;;;;5044530;28;20440;-67
2022/10/12 12:49:50;;;;;;;10.10;3.08;;;16.90;64.10;;;;;;5044080;28;20045;-66
2022/10/12 12:52:37;;;;;;;8.57;2.50;;;16.60;64.30;;;;;;5044690;28;20433;-66
2022/10/12 12:55:15;;;;;;;9.35;2.75;;;16.70;65.70;;;;;;5045257;28;20041;-67
2022/10/12 12:58:18;;;;;;;8.57;3.17;;;16.80;66.00;;;;;;5043343;28;20531;-66
2022/10/12 13:00:55;;;;;;;13.45;3.53;;;16.70;65.90;;;;;;5042922;28;20041;-66
2022/10/12 13:03:48;;;;;;;9.30;3.05;;;16.30;66.60;;;;;;5041178;28;20282;-66
2022/10/12 13:06:57;;;;;;;10.93;3.45;;;16.00;68.20;;;;;;5044721;28;20053;-66